• °C
  • Pobieranie danych...
wx


PRINT OUT SECTION, show »

METAR EPBY 122030Z 28010KT CAVOK 13/12 Q1011=

METAR EPGD 122030Z 29014KT 9999 FEW043 13/07 Q1009 =

METAR EPKK 122030Z 30010KT 9999 FEW020CB BKN052 16/14 Q1012 =

METAR EPKT 122030Z 31007KT 280V340 9999 FEW006 SCT010 13/12 Q1013 =

METAR EPLB 122030Z 30005KT 5000 -SHRA BR FEW007 BKN018CB 16/16 Q1008
=

METAR EPLL 122030Z 29009KT 260V320 9999 SCT012 14/14 Q1012 =

METAR EPMO 122030Z 28007KT 9999 -SHRA FEW010 FEW022CB 14/14 Q1009 =

METAR EPPO 122030Z 29011KT 9999 FEW028 BKN048 14/12 Q1014 =

METAR EPRA 122030Z NIL=

METAR EPRZ 122030Z 28016KT 8000 -SHRA BKN033CB 17/16 Q1010 =

METAR EPSC 122030Z 30014KT 9999 FEW044 15/08 Q1014 =

METAR EPSY 122030Z 24003KT CAVOK 13/13 Q1008=

METAR EPWA 122030Z 30011KT 9999 -SHRA FEW008 FEW033CB 15/13 Q1009
NOSIG=

METAR EPWR 122030Z 29007KT CAVOK 13/13 Q1015 =

METAR EPZG 122030Z NIL=



IMGW-PIB Sites